This is the latest recevied weather packets stored in our database for station/object OE-11344. If no packets are shown the sender has not sent any weather packets the latest 10 day(s).
| Time | Temp. | Humidity | Pressure | Rain* | Wind** | Luminosity | Snow |
|---|---|---|---|---|---|---|---|
| 1787864711 | 22.22° C | 46% | 855 hPa | 0 mm | - | 0 W/m² | - |
| 1787864111 | 22.78° C | 42% | 854.9 hPa | 0 mm | - | 0 W/m² | - |
| 1787863285 | 22.78° C | 42% | 854.6 hPa | 0 mm | - | 0 W/m² | - |
| 1787862912 | 22.22° C | 45% | 854.7 hPa | 0 mm | - | 0 W/m² | - |
| 1787862312 | 22.22° C | 45% | 854.9 hPa | 0 mm | - | 0 W/m² | - |
| 1787861485 | 21.67° C | 47% | 854.7 hPa | 0 mm | - | 0 W/m² | - |
| 1787861112 | 22.22° C | 47% | 854.9 hPa | 0 mm | - | 0 W/m² | - |
| 1787860512 | 22.22° C | 45% | 854.7 hPa | 0 mm | - | 0 W/m² | - |
| 1787859685 | 22.22° C | 46% | 854.6 hPa | 0 mm | - | 0 W/m² | - |
| 1787859312 | 22.22° C | 47% | 854.5 hPa | 0 mm | - | 0 W/m² | - |
| 1787858712 | 22.22° C | 44% | 854.6 hPa | 0 mm | - | 0 W/m² | - |
| 1787857885 | 22.78° C | 43% | 854.4 hPa | 0 mm | - | 0 W/m² | - |
| 1787857512 | 22.22° C | 45% | 854.4 hPa | 0 mm | - | 0 W/m² | - |
| 1787856912 | 22.78° C | 45% | 854.5 hPa | 0 mm | - | 0 W/m² | - |
| 1787856085 | 22.22° C | 45% | 854.4 hPa | 0 mm | - | 0 W/m² | - |
| 1787855711 | 22.22° C | 46% | 854.3 hPa | 0 mm | - | 0 W/m² | - |
| 1787855112 | 21.67° C | 50% | 854.3 hPa | 0 mm | - | 0 W/m² | - |
| 1787854285 | 22.78° C | 44% | 854.2 hPa | 0 mm | - | 0 W/m² | - |
| 1787853912 | 22.78° C | 43% | 854 hPa | 0 mm | - | 6 W/m² | - |
| 1787852724 | 22.78° C | 46% | 853.6 hPa | 0 mm | - | 30 W/m² | - |
| 1787852111 | 22.78° C | 44% | 853.9 hPa | 0 mm | - | 36 W/m² | - |
| 1787851512 | 22.78° C | 44% | 853.9 hPa | 0 mm | - | 48 W/m² | - |
| 1787850685 | 22.78° C | 44% | 853.8 hPa | 0 mm | - | 54 W/m² | - |
| 1787850312 | 22.22° C | 49% | 853.9 hPa | 0 mm | - | 79 W/m² | - |
| 1787849712 | 22.78° C | 48% | 854 hPa | 0 mm | - | 85 W/m² | - |
* Rain latest hour (hover to see other rain measurements)
** Current wind speed in m/s (hover to see current wind gust speed)